Terminal Aerodrome Forecast
Issued by NWS

Current Version | Previous Version | Graphics & Text | Print | Product List | Glossary On
Versions: 1 2 3 4 5 6 7 8 9 10 11 12 13 14 15 16 17 18 19 20 21 22 23 24 25 26 27 28 29 30 31 32 33 34 35 36 37 38 39 40 41 42 43 44 45
000
FTUS41 KRNK 261604 AAC
TAFLWB
TAF AMD
KLWB 261604Z 2616/2712 00000KT 1SM -SN OVC004
      TEMPO 2616/2618 2SM -SN OVC006
     FM261800 32004KT 6SM -SN OVC008
     FM270000 00000KT P6SM BKN015 OVC040
     FM270800 00000KT 4SM -SHSN BR OVC035=

USA.gov is the U.S. government's official web portal to all federal, state and local government web resources and services.